WXM80 ListenWXM80 Stop

You find our weather info also at:

UK Metoffice

WeatherCloud

Weather Underground

Northeastern Weather Network

AWEKAS

Citizen Weather Observer Program (CWOP)

HAMweather, WeatherForYou, PWS Weather


Weather Underground History page Text

Daily Summary for November 6, 2017 Units:  Both    English   Metric
« Previous Day
Next Day »
Daily Weekly Monthly Yearly Custom
  High: Low: Average:
Temperature: 65.7 °F /  18.7 °C 49.2 °F /  9.6 °C 60.9 °F /  16.1 °C
Dew Point: 63.3 °F /  17.4 °C 42.6 °F /  5.9 °C 58.5 °F /  14.7 °C
Humidity: 98 % 78 % 92 %
Wind Speed: 11.6 mph /  18.7 km/h - 2.7 mph /  4.3 km/h
Wind Gust: 18.4 mph /  29.6 km/h - -
Wind:- - SSW
Pressure: 30.12 in /  1019.9 hPa 29.85 in /  1010.7 hPa -
Precipitation: 0.03 in /  0.76 mm    
Historical Graphs
 
 
Tabular Data for November 6, 2017
Time Temperature Dew Point Pressure Wind Wind Speed Wind Gust Humidity Rainfall Rate (Hourly)
00:02 60.4 °F /  15.8 °C 59.5 °F /  15.3 °C 30.01 in /  1016.1 hPa SW 0.7 mph /  1.1 km/h 3.5 mph /  5.6 km/h 97 % 0.00 in /  0 mm
00:07 60.4 °F /  15.8 °C 59.5 °F /  15.3 °C 30.02 in /  1016.5 hPa WSW 1.2 mph /  1.9 km/h 3.5 mph /  5.6 km/h 97 % 0.00 in /  0 mm
00:12 60.3 °F /  15.7 °C 59.4 °F /  15.2 °C 30.01 in /  1016.1 hPa WSW 0.1 mph /  0.2 km/h 1.0 mph /  1.6 km/h 97 % 0.00 in /  0 mm
00:17 60.3 °F /  15.7 °C 59.4 °F /  15.2 °C 30.02 in /  1016.5 hPa Calm   1.2 mph /  1.9 km/h 97 % 0.00 in /  0 mm
00:22 60.2 °F /  15.7 °C 59.3 °F /  15.2 °C 30.00 in /  1015.8 hPa Calm     97 % 0.00 in /  0 mm
00:27 60.1 °F /  15.6 °C 59.2 °F /  15.1 °C 30.01 in /  1016.1 hPa Calm     97 % 0.00 in /  0 mm
00:32 60.1 °F /  15.6 °C 59.2 °F /  15.1 °C 30.01 in /  1016.1 hPa Calm     97 % 0.00 in /  0 mm
00:37 60.0 °F /  15.6 °C 59.1 °F /  15.1 °C 30.01 in /  1016.1 hPa Calm     97 % 0.00 in /  0 mm
00:42 59.9 °F /  15.5 °C 59.0 °F /  15 °C 30.00 in /  1015.8 hPa Calm     97 % 0.00 in /  0 mm
00:47 59.8 °F /  15.4 °C 58.9 °F /  14.9 °C 29.98 in /  1015.1 hPa Calm     97 % 0.00 in /  0 mm
00:52 59.7 °F /  15.4 °C 58.8 °F /  14.9 °C 29.99 in /  1015.5 hPa Calm   1.0 mph /  1.6 km/h 97 % 0.00 in /  0 mm
00:57 59.6 °F /  15.3 °C 58.7 °F /  14.8 °C 29.99 in /  1015.5 hPa Calm   1.2 mph /  1.9 km/h 97 % 0.00 in /  0 mm
01:02 59.5 °F /  15.3 °C 58.6 °F /  14.8 °C 29.99 in /  1015.5 hPa Calm   1.2 mph /  1.9 km/h 97 % 0.00 in /  0 mm
01:07 59.4 °F /  15.2 °C 58.5 °F /  14.7 °C 29.99 in /  1015.5 hPa WSW 0.1 mph /  0.2 km/h 4.0 mph /  6.4 km/h 97 % 0.00 in /  0 mm
01:12 59.4 °F /  15.2 °C 58.5 °F /  14.7 °C 30.00 in /  1015.8 hPa SW 2.2 mph /  3.5 km/h 4.6 mph /  7.4 km/h 97 % 0.00 in /  0 mm
01:17 59.3 °F /  15.2 °C 58.4 °F /  14.7 °C 29.99 in /  1015.5 hPa West 0.8 mph /  1.3 km/h 4.0 mph /  6.4 km/h 97 % 0.00 in /  0 mm
01:23 59.3 °F /  15.2 °C 58.4 °F /  14.7 °C 29.99 in /  1015.5 hPa Calm   1.2 mph /  1.9 km/h 97 % 0.00 in /  0 mm
01:28 59.3 °F /  15.2 °C 58.4 °F /  14.7 °C 30.00 in /  1015.8 hPa Calm     97 % 0.00 in /  0 mm
01:33 59.3 °F /  15.2 °C 58.4 °F /  14.7 °C 29.98 in /  1015.1 hPa Calm   1.2 mph /  1.9 km/h 97 % 0.00 in /  0 mm
01:38 59.3 °F /  15.2 °C 58.4 °F /  14.7 °C 29.99 in /  1015.5 hPa Calm     97 % 0.00 in /  0 mm
01:43 59.3 °F /  15.2 °C 58.4 °F /  14.7 °C 29.99 in /  1015.5 hPa Calm   1.2 mph /  1.9 km/h 97 % 0.01 in /  0.25 mm
01:48 59.3 °F /  15.2 °C 58.4 °F /  14.7 °C 29.99 in /  1015.5 hPa SW 0.1 mph /  0.2 km/h 1.2 mph /  1.9 km/h 97 % 0.01 in /  0.25 mm
01:53 59.2 °F /  15.1 °C 58.3 °F /  14.6 °C 29.99 in /  1015.5 hPa Calm   1.0 mph /  1.6 km/h 97 % 0.01 in /  0.25 mm
01:58 59.2 °F /  15.1 °C 58.3 °F /  14.6 °C 29.99 in /  1015.5 hPa SW 0.1 mph /  0.2 km/h 1.2 mph /  1.9 km/h 97 % 0.01 in /  0.25 mm
02:03 59.3 °F /  15.2 °C 58.4 °F /  14.7 °C 29.99 in /  1015.5 hPa SW 0.5 mph /  0.8 km/h 2.3 mph /  3.7 km/h 97 % 0.01 in /  0.25 mm
02:08 59.3 °F /  15.2 °C 58.4 °F /  14.7 °C 29.97 in /  1014.8 hPa SW 0.4 mph /  0.6 km/h 2.3 mph /  3.7 km/h 97 % 0.01 in /  0.25 mm
02:13 59.4 °F /  15.2 °C 58.5 °F /  14.7 °C 29.97 in /  1014.8 hPa SW 0.1 mph /  0.2 km/h 1.2 mph /  1.9 km/h 97 % 0.01 in /  0.25 mm
02:18 59.4 °F /  15.2 °C 58.5 °F /  14.7 °C 29.99 in /  1015.5 hPa SSE 0.5 mph /  0.8 km/h 2.3 mph /  3.7 km/h 97 % 0.01 in /  0.25 mm
02:23 59.6 °F /  15.3 °C 59.0 °F /  15 °C 29.98 in /  1015.1 hPa SW 0.3 mph /  0.5 km/h 2.3 mph /  3.7 km/h 98 % 0.01 in /  0.25 mm
02:28 59.7 °F /  15.4 °C 59.1 °F /  15.1 °C 29.98 in /  1015.1 hPa SSW 1.6 mph /  2.6 km/h 5.8 mph /  9.3 km/h 98 % 0.01 in /  0.25 mm
02:33 59.8 °F /  15.4 °C 59.2 °F /  15.1 °C 29.99 in /  1015.5 hPa SW 1.7 mph /  2.7 km/h 3.5 mph /  5.6 km/h 98 % 0.01 in /  0.25 mm
02:36 59.9 °F /  15.5 °C 59.3 °F /  15.2 °C 29.98 in /  1015.1 hPa SE 0.4 mph /  0.6 km/h 3.5 mph /  5.6 km/h 98 % 0.01 in /  0.25 mm
02:41 60.0 °F /  15.6 °C 59.4 °F /  15.2 °C 29.98 in /  1015.1 hPa South 0.9 mph /  1.4 km/h 4.6 mph /  7.4 km/h 98 % 0.01 in /  0.25 mm
02:46 60.1 °F /  15.6 °C 59.5 °F /  15.3 °C 29.99 in /  1015.5 hPa South 0.1 mph /  0.2 km/h 2.3 mph /  3.7 km/h 98 % 0.00 in /  0 mm
02:51 60.2 °F /  15.7 °C 59.6 °F /  15.3 °C 29.99 in /  1015.5 hPa SSW 0.1 mph /  0.2 km/h 2.3 mph /  3.7 km/h 98 % 0.00 in /  0 mm
02:56 60.3 °F /  15.7 °C 59.7 °F /  15.4 °C 29.97 in /  1014.8 hPa Calm     98 % 0.00 in /  0 mm
03:01 60.3 °F /  15.7 °C 59.7 °F /  15.4 °C 29.97 in /  1014.8 hPa SSW 1.7 mph /  2.7 km/h 3.5 mph /  5.6 km/h 98 % 0.00 in /  0 mm
03:06 60.3 °F /  15.7 °C 59.7 °F /  15.4 °C 29.98 in /  1015.1 hPa SSW 0.7 mph /  1.1 km/h 2.3 mph /  3.7 km/h 98 % 0.00 in /  0 mm
03:11 60.4 °F /  15.8 °C 59.8 °F /  15.4 °C 29.96 in /  1014.4 hPa SW 1.2 mph /  1.9 km/h 5.8 mph /  9.3 km/h 98 % 0.00 in /  0 mm
03:16 60.5 °F /  15.8 °C 59.9 °F /  15.5 °C 29.97 in /  1014.8 hPa SW 1.6 mph /  2.6 km/h 3.5 mph /  5.6 km/h 98 % 0.00 in /  0 mm
03:22 60.6 °F /  15.9 °C 60.0 °F /  15.6 °C 29.97 in /  1014.8 hPa SW 2.6 mph /  4.2 km/h 9.2 mph /  14.8 km/h 98 % 0.00 in /  0 mm
03:27 60.7 °F /  15.9 °C 60.1 °F /  15.6 °C 29.97 in /  1014.8 hPa SW 0.9 mph /  1.4 km/h 4.0 mph /  6.4 km/h 98 % 0.00 in /  0 mm
03:32 60.8 °F /  16 °C 60.2 °F /  15.7 °C 29.96 in /  1014.4 hPa SE 2.3 mph /  3.7 km/h 5.8 mph /  9.3 km/h 98 % 0.00 in /  0 mm
03:37 60.9 °F /  16.1 °C 60.3 °F /  15.7 °C 29.97 in /  1014.8 hPa SSE 0.3 mph /  0.5 km/h 2.3 mph /  3.7 km/h 98 % 0.00 in /  0 mm
03:42 60.9 °F /  16.1 °C 60.3 °F /  15.7 °C 29.96 in /  1014.4 hPa Calm   2.3 mph /  3.7 km/h 98 % 0.00 in /  0 mm
03:47 61.0 °F /  16.1 °C 60.4 °F /  15.8 °C 29.95 in /  1014.1 hPa SW 0.5 mph /  0.8 km/h 2.3 mph /  3.7 km/h 98 % 0.00 in /  0 mm
03:52 61.1 °F /  16.2 °C 60.5 °F /  15.8 °C 29.96 in /  1014.4 hPa SW 1.1 mph /  1.8 km/h 11.5 mph /  18.5 km/h 98 % 0.00 in /  0 mm
03:57 61.1 °F /  16.2 °C 60.5 °F /  15.8 °C 29.95 in /  1014.1 hPa WSW 1.4 mph /  2.3 km/h 3.5 mph /  5.6 km/h 98 % 0.00 in /  0 mm
04:02 61.2 °F /  16.2 °C 60.6 °F /  15.9 °C 29.95 in /  1014.1 hPa West 0.3 mph /  0.5 km/h 3.5 mph /  5.6 km/h 98 % 0.00 in /  0 mm
04:07 61.3 °F /  16.3 °C 60.7 °F /  15.9 °C 29.95 in /  1014.1 hPa SW 0.9 mph /  1.4 km/h 4.0 mph /  6.4 km/h 98 % 0.00 in /  0 mm
04:12 61.3 °F /  16.3 °C 60.7 °F /  15.9 °C 29.96 in /  1014.4 hPa South 1.2 mph /  1.9 km/h 2.0 mph /  3.2 km/h 98 % 0.00 in /  0 mm
04:17 61.4 °F /  16.3 °C 60.8 °F /  16 °C 29.96 in /  1014.4 hPa SSW 1.5 mph /  2.4 km/h 6.9 mph /  11.1 km/h 98 % 0.00 in /  0 mm
04:22 61.4 °F /  16.3 °C 60.8 °F /  16 °C 29.95 in /  1014.1 hPa SW 0.5 mph /  0.8 km/h 3.0 mph /  4.8 km/h 98 % 0.00 in /  0 mm
04:27 61.5 °F /  16.4 °C 60.9 °F /  16.1 °C 29.96 in /  1014.4 hPa WNW 3.3 mph /  5.3 km/h 4.6 mph /  7.4 km/h 98 % 0.00 in /  0 mm
04:32 61.5 °F /  16.4 °C 60.9 °F /  16.1 °C 29.95 in /  1014.1 hPa South 1.3 mph /  2.1 km/h 3.5 mph /  5.6 km/h 98 % 0.00 in /  0 mm
04:37 61.6 °F /  16.4 °C 61.0 °F /  16.1 °C 29.95 in /  1014.1 hPa South 0.3 mph /  0.5 km/h 3.5 mph /  5.6 km/h 98 % 0.00 in /  0 mm
04:42 61.6 °F /  16.4 °C 61.0 °F /  16.1 °C 29.94 in /  1013.8 hPa SSW 4.0 mph /  6.4 km/h 4.0 mph /  6.4 km/h 98 % 0.00 in /  0 mm
04:48 61.7 °F /  16.5 °C 61.1 °F /  16.2 °C 29.95 in /  1014.1 hPa South 3.5 mph /  5.6 km/h 6.0 mph /  9.7 km/h 98 % 0.00 in /  0 mm
04:53 61.7 °F /  16.5 °C 61.1 °F /  16.2 °C 29.94 in /  1013.8 hPa SSW 3.1 mph /  5 km/h 5.8 mph /  9.3 km/h 98 % 0.00 in /  0 mm
04:58 61.7 °F /  16.5 °C 61.1 °F /  16.2 °C 29.95 in /  1014.1 hPa SW 3.4 mph /  5.5 km/h 5.8 mph /  9.3 km/h 98 % 0.00 in /  0 mm
05:03 61.8 °F /  16.6 °C 61.2 °F /  16.2 °C 29.95 in /  1014.1 hPa SW 2.3 mph /  3.7 km/h 8.1 mph /  13 km/h 98 % 0.00 in /  0 mm
05:08 61.8 °F /  16.6 °C 61.2 °F /  16.2 °C 29.95 in /  1014.1 hPa South 4.6 mph /  7.4 km/h 5.8 mph /  9.3 km/h 98 % 0.00 in /  0 mm
05:13 61.9 °F /  16.6 °C 61.3 °F /  16.3 °C 29.95 in /  1014.1 hPa SSW 3.3 mph /  5.3 km/h 6.9 mph /  11.1 km/h 98 % 0.00 in /  0 mm
05:18 62.0 °F /  16.7 °C 61.4 °F /  16.3 °C 29.95 in /  1014.1 hPa South 8.8 mph /  14.2 km/h 16.1 mph /  25.9 km/h 98 % 0.00 in /  0 mm
05:23 62.0 °F /  16.7 °C 61.4 °F /  16.3 °C 29.95 in /  1014.1 hPa SSW 5.6 mph /  9 km/h 11.5 mph /  18.5 km/h 98 % 0.00 in /  0 mm
05:28 62.0 °F /  16.7 °C 61.4 °F /  16.3 °C 29.94 in /  1013.8 hPa SW 3.9 mph /  6.3 km/h 6.9 mph /  11.1 km/h 98 % 0.00 in /  0 mm
05:33 62.1 °F /  16.7 °C 61.5 °F /  16.4 °C 29.94 in /  1013.8 hPa SSW 4.0 mph /  6.4 km/h 8.1 mph /  13 km/h 98 % 0.00 in /  0 mm
05:43 62.2 °F /  16.8 °C 61.6 °F /  16.4 °C 29.95 in /  1014.1 hPa WSW 5.9 mph /  9.5 km/h 11.5 mph /  18.5 km/h 98 % 0.00 in /  0 mm
05:48 62.2 °F /  16.8 °C 61.6 °F /  16.4 °C 29.94 in /  1013.8 hPa WSW 3.3 mph /  5.3 km/h 9.2 mph /  14.8 km/h 98 % 0.00 in /  0 mm
05:58 62.3 °F /  16.8 °C 61.7 °F /  16.5 °C 29.94 in /  1013.8 hPa SSW 0.5 mph /  0.8 km/h 6.9 mph /  11.1 km/h 98 % 0.00 in /  0 mm
06:03 62.3 °F /  16.8 °C 61.7 °F /  16.5 °C 29.94 in /  1013.8 hPa WSW 3.2 mph /  5.1 km/h 6.9 mph /  11.1 km/h 98 % 0.00 in /  0 mm
06:08 62.4 °F /  16.9 °C 61.5 °F /  16.4 °C 29.94 in /  1013.8 hPa South 1.7 mph /  2.7 km/h 6.9 mph /  11.1 km/h 97 % 0.00 in /  0 mm
06:13 62.4 °F /  16.9 °C 61.5 °F /  16.4 °C 29.93 in /  1013.4 hPa SSW 2.4 mph /  3.9 km/h 6.9 mph /  11.1 km/h 97 % 0.00 in /  0 mm
06:18 62.4 °F /  16.9 °C 61.5 °F /  16.4 °C 29.92 in /  1013.1 hPa SW 1.9 mph /  3.1 km/h 3.5 mph /  5.6 km/h 97 % 0.00 in /  0 mm
06:23 62.5 °F /  16.9 °C 61.6 °F /  16.4 °C 29.92 in /  1013.1 hPa SSW 2.4 mph /  3.9 km/h 6.9 mph /  11.1 km/h 97 % 0.00 in /  0 mm
06:28 62.5 °F /  16.9 °C 61.6 °F /  16.4 °C 29.93 in /  1013.4 hPa SW 1.9 mph /  3.1 km/h 4.6 mph /  7.4 km/h 97 % 0.00 in /  0 mm
06:33 62.5 °F /  16.9 °C 61.6 °F /  16.4 °C 29.92 in /  1013.1 hPa WSW 5.3 mph /  8.5 km/h 9.2 mph /  14.8 km/h 97 % 0.01 in /  0.25 mm
06:38 62.5 °F /  16.9 °C 61.6 °F /  16.4 °C 29.92 in /  1013.1 hPa SW 0.3 mph /  0.5 km/h 5.8 mph /  9.3 km/h 97 % 0.01 in /  0.25 mm
06:43 62.6 °F /  17 °C 61.7 °F /  16.5 °C 29.93 in /  1013.4 hPa SSW 4.5 mph /  7.2 km/h 10.4 mph /  16.7 km/h 97 % 0.01 in /  0.25 mm
06:48 62.6 °F /  17 °C 61.7 °F /  16.5 °C 29.93 in /  1013.4 hPa SSW 1.4 mph /  2.3 km/h 3.5 mph /  5.6 km/h 97 % 0.01 in /  0.25 mm
06:53 62.7 °F /  17.1 °C 61.8 °F /  16.6 °C 29.93 in /  1013.4 hPa SSW 1.7 mph /  2.7 km/h 4.0 mph /  6.4 km/h 97 % 0.01 in /  0.25 mm
06:58 62.7 °F /  17.1 °C 61.8 °F /  16.6 °C 29.93 in /  1013.4 hPa SW 2.1 mph /  3.4 km/h 3.5 mph /  5.6 km/h 97 % 0.01 in /  0.25 mm
07:03 62.7 °F /  17.1 °C 61.8 °F /  16.6 °C 29.93 in /  1013.4 hPa SSW 3.8 mph /  6.1 km/h 6.0 mph /  9.7 km/h 97 % 0.01 in /  0.25 mm
07:08 62.7 °F /  17.1 °C 61.8 °F /  16.6 °C 29.92 in /  1013.1 hPa SW 1.7 mph /  2.7 km/h 3.5 mph /  5.6 km/h 97 % 0.01 in /  0.25 mm
07:13 62.8 °F /  17.1 °C 61.9 °F /  16.6 °C 29.92 in /  1013.1 hPa SW 0.3 mph /  0.5 km/h 3.5 mph /  5.6 km/h 97 % 0.01 in /  0.25 mm
07:18 62.8 °F /  17.1 °C 61.9 °F /  16.6 °C 29.92 in /  1013.1 hPa SW 2.6 mph /  4.2 km/h 7.0 mph /  11.3 km/h 97 % 0.01 in /  0.25 mm
07:23 62.8 °F /  17.1 °C 61.9 °F /  16.6 °C 29.93 in /  1013.4 hPa SW 1.7 mph /  2.7 km/h 4.6 mph /  7.4 km/h 97 % 0.01 in /  0.25 mm
07:28 62.9 °F /  17.2 °C 62.0 °F /  16.7 °C 29.94 in /  1013.8 hPa SSW 0.3 mph /  0.5 km/h 3.0 mph /  4.8 km/h 97 % 0.01 in /  0.25 mm
07:33 62.9 °F /  17.2 °C 62.0 °F /  16.7 °C 29.93 in /  1013.4 hPa SSW 4.6 mph /  7.4 km/h 6.9 mph /  11.1 km/h 97 % 0.00 in /  0 mm
07:38 62.9 °F /  17.2 °C 62.0 °F /  16.7 °C 29.93 in /  1013.4 hPa SW 1.8 mph /  2.9 km/h 3.5 mph /  5.6 km/h 97 % 0.00 in /  0 mm
07:43 63.0 °F /  17.2 °C 61.8 °F /  16.6 °C 29.92 in /  1013.1 hPa SSW 3.6 mph /  5.8 km/h 6.0 mph /  9.7 km/h 96 % 0.00 in /  0 mm
07:48 63.0 °F /  17.2 °C 61.8 °F /  16.6 °C 29.93 in /  1013.4 hPa SSW 2.1 mph /  3.4 km/h 3.5 mph /  5.6 km/h 96 % 0.00 in /  0 mm
07:53 63.1 °F /  17.3 °C 61.9 °F /  16.6 °C 29.92 in /  1013.1 hPa SW 1.2 mph /  1.9 km/h 4.6 mph /  7.4 km/h 96 % 0.00 in /  0 mm
07:58 63.1 °F /  17.3 °C 62.2 °F /  16.8 °C 29.92 in /  1013.1 hPa South 1.3 mph /  2.1 km/h 3.5 mph /  5.6 km/h 97 % 0.00 in /  0 mm
08:03 63.1 °F /  17.3 °C 61.9 °F /  16.6 °C 29.92 in /  1013.1 hPa WNW 2.4 mph /  3.9 km/h 8.0 mph /  12.9 km/h 96 % 0.00 in /  0 mm
08:08 63.2 °F /  17.3 °C 62.0 °F /  16.7 °C 29.92 in /  1013.1 hPa SW 2.0 mph /  3.2 km/h 4.6 mph /  7.4 km/h 96 % 0.00 in /  0 mm
08:13 63.2 °F /  17.3 °C 62.0 °F /  16.7 °C 29.92 in /  1013.1 hPa SW 2.2 mph /  3.5 km/h 4.6 mph /  7.4 km/h 96 % 0.00 in /  0 mm
08:18 63.3 °F /  17.4 °C 62.1 °F /  16.7 °C 29.92 in /  1013.1 hPa WSW 3.4 mph /  5.5 km/h 6.9 mph /  11.1 km/h 96 % 0.00 in /  0 mm
08:23 63.4 °F /  17.4 °C 62.2 °F /  16.8 °C 29.92 in /  1013.1 hPa SSW 1.0 mph /  1.6 km/h 3.5 mph /  5.6 km/h 96 % 0.00 in /  0 mm
08:28 63.4 °F /  17.4 °C 62.2 °F /  16.8 °C 29.92 in /  1013.1 hPa SW 3.6 mph /  5.8 km/h 6.0 mph /  9.7 km/h 96 % 0.00 in /  0 mm
08:33 63.4 °F /  17.4 °C 62.2 °F /  16.8 °C 29.92 in /  1013.1 hPa SW 2.2 mph /  3.5 km/h 3.5 mph /  5.6 km/h 96 % 0.00 in /  0 mm
08:38 63.5 °F /  17.5 °C 62.3 °F /  16.8 °C 29.92 in /  1013.1 hPa SSE 1.8 mph /  2.9 km/h 5.8 mph /  9.3 km/h 96 % 0.00 in /  0 mm
08:43 63.5 °F /  17.5 °C 62.3 °F /  16.8 °C 29.92 in /  1013.1 hPa SW 4.3 mph /  6.9 km/h 5.8 mph /  9.3 km/h 96 % 0.00 in /  0 mm
08:48 63.6 °F /  17.6 °C 62.4 °F /  16.9 °C 29.93 in /  1013.4 hPa SSW 1.8 mph /  2.9 km/h 4.6 mph /  7.4 km/h 96 % 0.00 in /  0 mm
08:53 63.6 °F /  17.6 °C 62.4 °F /  16.9 °C 29.92 in /  1013.1 hPa SSW 5.8 mph /  9.3 km/h 5.8 mph /  9.3 km/h 96 % 0.00 in /  0 mm
08:58 63.6 °F /  17.6 °C 62.4 °F /  16.9 °C 29.93 in /  1013.4 hPa SSW 3.6 mph /  5.8 km/h 6.0 mph /  9.7 km/h 96 % 0.00 in /  0 mm
09:03 63.6 °F /  17.6 °C 62.4 °F /  16.9 °C 29.92 in /  1013.1 hPa West 4.6 mph /  7.4 km/h 11.5 mph /  18.5 km/h 96 % 0.00 in /  0 mm
09:08 63.6 °F /  17.6 °C 62.4 °F /  16.9 °C 29.92 in /  1013.1 hPa ENE 1.9 mph /  3.1 km/h 4.6 mph /  7.4 km/h 96 % 0.00 in /  0 mm
09:13 63.6 °F /  17.6 °C 62.4 °F /  16.9 °C 29.92 in /  1013.1 hPa SW 4.2 mph /  6.8 km/h 12.0 mph /  19.3 km/h 96 % 0.00 in /  0 mm
09:18 63.6 °F /  17.6 °C 62.4 °F /  16.9 °C 29.93 in /  1013.4 hPa SW 2.2 mph /  3.5 km/h 9.2 mph /  14.8 km/h 96 % 0.00 in /  0 mm
09:23 63.6 °F /  17.6 °C 62.4 °F /  16.9 °C 29.92 in /  1013.1 hPa WNW 1.4 mph /  2.3 km/h 4.6 mph /  7.4 km/h 96 % 0.00 in /  0 mm
09:28 63.6 °F /  17.6 °C 62.4 °F /  16.9 °C 29.93 in /  1013.4 hPa WSW 0.7 mph /  1.1 km/h 8.1 mph /  13 km/h 96 % 0.00 in /  0 mm
09:33 63.6 °F /  17.6 °C 62.4 °F /  16.9 °C 29.92 in /  1013.1 hPa WSW 2.2 mph /  3.5 km/h 5.8 mph /  9.3 km/h 96 % 0.00 in /  0 mm
09:38 63.6 °F /  17.6 °C 62.4 °F /  16.9 °C 29.93 in /  1013.4 hPa WSW 0.9 mph /  1.4 km/h 4.6 mph /  7.4 km/h 96 % 0.00 in /  0 mm
09:44 63.7 °F /  17.6 °C 62.5 °F /  16.9 °C 29.93 in /  1013.4 hPa South 3.0 mph /  4.8 km/h 5.8 mph /  9.3 km/h 96 % 0.00 in /  0 mm
09:45 63.7 °F /  17.6 °C 62.5 °F /  16.9 °C 29.93 in /  1013.4 hPa South 1.0 mph /  1.6 km/h 4.0 mph /  6.4 km/h 96 % 0.00 in /  0 mm
09:50 63.8 °F /  17.7 °C 62.6 °F /  17 °C 29.92 in /  1013.1 hPa SSW 1.7 mph /  2.7 km/h 3.5 mph /  5.6 km/h 96 % 0.00 in /  0 mm
09:56 63.7 °F /  17.6 °C 62.5 °F /  16.9 °C 29.92 in /  1013.1 hPa SW 1.0 mph /  1.6 km/h 7.0 mph /  11.3 km/h 96 % 0.00 in /  0 mm
10:01 63.7 °F /  17.6 °C 62.5 °F /  16.9 °C 29.92 in /  1013.1 hPa WSW 0.9 mph /  1.4 km/h 5.8 mph /  9.3 km/h 96 % 0.00 in /  0 mm
10:06 63.7 °F /  17.6 °C 62.5 °F /  16.9 °C 29.92 in /  1013.1 hPa WSW 0.4 mph /  0.6 km/h 3.5 mph /  5.6 km/h 96 % 0.00 in /  0 mm
10:11 63.7 °F /  17.6 °C 62.5 °F /  16.9 °C 29.91 in /  1012.8 hPa WSW 2.8 mph /  4.5 km/h 10.4 mph /  16.7 km/h 96 % 0.00 in /  0 mm
10:16 63.7 °F /  17.6 °C 62.5 °F /  16.9 °C 29.92 in /  1013.1 hPa SW 2.1 mph /  3.4 km/h 3.5 mph /  5.6 km/h 96 % 0.00 in /  0 mm
10:21 63.7 °F /  17.6 °C 62.5 °F /  16.9 °C 29.92 in /  1013.1 hPa SW 0.2 mph /  0.3 km/h 3.5 mph /  5.6 km/h 96 % 0.00 in /  0 mm
10:26 63.7 °F /  17.6 °C 62.5 °F /  16.9 °C 29.92 in /  1013.1 hPa WSW 1.4 mph /  2.3 km/h 3.5 mph /  5.6 km/h 96 % 0.00 in /  0 mm
10:31 63.7 °F /  17.6 °C 62.5 °F /  16.9 °C 29.92 in /  1013.1 hPa WSW 3.7 mph /  6 km/h 6.9 mph /  11.1 km/h 96 % 0.00 in /  0 mm
10:36 63.8 °F /  17.7 °C 62.6 °F /  17 °C 29.93 in /  1013.4 hPa Calm   2.3 mph /  3.7 km/h 96 % 0.00 in /  0 mm
10:43 63.7 °F /  17.6 °C 62.5 °F /  16.9 °C 29.92 in /  1013.1 hPa WSW 5.6 mph /  9 km/h 9.0 mph /  14.5 km/h 96 % 0.00 in /  0 mm
10:48 63.7 °F /  17.6 °C 62.5 °F /  16.9 °C 29.91 in /  1012.8 hPa SSW 2.0 mph /  3.2 km/h 4.0 mph /  6.4 km/h 96 % 0.00 in /  0 mm
10:53 63.7 °F /  17.6 °C 62.5 °F /  16.9 °C 29.91 in /  1012.8 hPa WSW 1.4 mph /  2.3 km/h 8.1 mph /  13 km/h 96 % 0.00 in /  0 mm
10:58 63.7 °F /  17.6 °C 62.5 °F /  16.9 °C 29.92 in /  1013.1 hPa SW 3.0 mph /  4.8 km/h 4.6 mph /  7.4 km/h 96 % 0.00 in /  0 mm
11:03 63.7 °F /  17.6 °C 62.5 °F /  16.9 °C 29.91 in /  1012.8 hPa SW 0.7 mph /  1.1 km/h 3.5 mph /  5.6 km/h 96 % 0.00 in /  0 mm
11:08 63.7 °F /  17.6 °C 62.5 °F /  16.9 °C 29.91 in /  1012.8 hPa WSW 0.2 mph /  0.3 km/h 2.3 mph /  3.7 km/h 96 % 0.00 in /  0 mm
11:13 63.7 °F /  17.6 °C 62.5 °F /  16.9 °C 29.90 in /  1012.4 hPa WSW 1.8 mph /  2.9 km/h 8.1 mph /  13 km/h 96 % 0.00 in /  0 mm
11:18 63.8 °F /  17.7 °C 62.6 °F /  17 °C 29.89 in /  1012.1 hPa SSW 0.3 mph /  0.5 km/h 2.3 mph /  3.7 km/h 96 % 0.00 in /  0 mm
11:23 63.8 °F /  17.7 °C 62.6 °F /  17 °C 29.89 in /  1012.1 hPa SW 2.2 mph /  3.5 km/h 3.5 mph /  5.6 km/h 96 % 0.00 in /  0 mm
11:28 63.9 °F /  17.7 °C 62.7 °F /  17.1 °C 29.89 in /  1012.1 hPa SW 2.0 mph /  3.2 km/h 5.8 mph /  9.3 km/h 96 % 0.00 in /  0 mm
11:33 64.0 °F /  17.8 °C 62.8 °F /  17.1 °C 29.89 in /  1012.1 hPa SSW 3.6 mph /  5.8 km/h 5.0 mph /  8 km/h 96 % 0.00 in /  0 mm
11:38 64.0 °F /  17.8 °C 62.8 °F /  17.1 °C 29.90 in /  1012.4 hPa West 3.9 mph /  6.3 km/h 6.0 mph /  9.7 km/h 96 % 0.00 in /  0 mm
11:43 64.1 °F /  17.8 °C 62.6 °F /  17 °C 29.90 in /  1012.4 hPa SW 2.6 mph /  4.2 km/h 5.0 mph /  8 km/h 95 % 0.00 in /  0 mm
11:48 64.1 °F /  17.8 °C 62.6 °F /  17 °C 29.89 in /  1012.1 hPa WSW 2.8 mph /  4.5 km/h 4.0 mph /  6.4 km/h 95 % 0.00 in /  0 mm
11:54 64.3 °F /  17.9 °C 62.8 °F /  17.1 °C 29.89 in /  1012.1 hPa SW 4.0 mph /  6.4 km/h 6.9 mph /  11.1 km/h 95 % 0.00 in /  0 mm
11:58 64.4 °F /  18 °C 62.9 °F /  17.2 °C 29.90 in /  1012.4 hPa WSW 3.0 mph /  4.8 km/h 7.0 mph /  11.3 km/h 95 % 0.00 in /  0 mm
12:03 64.5 °F /  18.1 °C 62.7 °F /  17.1 °C 29.89 in /  1012.1 hPa SSW 3.8 mph /  6.1 km/h 8.1 mph /  13 km/h 94 % 0.00 in /  0 mm
12:08 64.5 °F /  18.1 °C 62.7 °F /  17.1 °C 29.89 in /  1012.1 hPa WSW 2.3 mph /  3.7 km/h 5.0 mph /  8 km/h 94 % 0.00 in /  0 mm
12:13 64.7 °F /  18.2 °C 62.9 °F /  17.2 °C 29.89 in /  1012.1 hPa WSW 1.1 mph /  1.8 km/h 3.5 mph /  5.6 km/h 94 % 0.00 in /  0 mm
12:18 64.7 °F /  18.2 °C 62.9 °F /  17.2 °C 29.88 in /  1011.7 hPa WSW 5.4 mph /  8.7 km/h 11.5 mph /  18.5 km/h 94 % 0.00 in /  0 mm
12:23 64.8 °F /  18.2 °C 62.7 °F /  17.1 °C 29.89 in /  1012.1 hPa SW 5.7 mph /  9.2 km/h 9.2 mph /  14.8 km/h 93 % 0.01 in /  0.25 mm
12:28 64.9 °F /  18.3 °C 62.8 °F /  17.1 °C 29.90 in /  1012.4 hPa South 2.3 mph /  3.7 km/h 4.6 mph /  7.4 km/h 93 % 0.01 in /  0.25 mm
12:33 64.9 °F /  18.3 °C 62.5 °F /  16.9 °C 29.89 in /  1012.1 hPa Calm   1.2 mph /  1.9 km/h 92 % 0.01 in /  0.25 mm
12:38 64.9 °F /  18.3 °C 62.5 °F /  16.9 °C 29.88 in /  1011.7 hPa WSW 0.2 mph /  0.3 km/h 3.5 mph /  5.6 km/h 92 % 0.01 in /  0.25 mm
12:43 65.0 °F /  18.3 °C 62.6 °F /  17 °C 29.88 in /  1011.7 hPa WSW 2.5 mph /  4 km/h 3.5 mph /  5.6 km/h 92 % 0.01 in /  0.25 mm
12:48 65.0 °F /  18.3 °C 62.6 °F /  17 °C 29.87 in /  1011.4 hPa West 1.8 mph /  2.9 km/h 3.5 mph /  5.6 km/h 92 % 0.01 in /  0.25 mm
12:53 65.0 °F /  18.3 °C 62.6 °F /  17 °C 29.89 in /  1012.1 hPa Calm   1.2 mph /  1.9 km/h 92 % 0.01 in /  0.25 mm
12:59 65.1 °F /  18.4 °C 62.7 °F /  17.1 °C 29.87 in /  1011.4 hPa Calm     92 % 0.01 in /  0.25 mm
13:04 65.2 °F /  18.4 °C 63.1 °F /  17.3 °C 29.88 in /  1011.7 hPa WSW 2.3 mph /  3.7 km/h 3.5 mph /  5.6 km/h 93 % 0.01 in /  0.25 mm
13:09 65.4 °F /  18.6 °C 63.3 °F /  17.4 °C 29.88 in /  1011.7 hPa WSW 2.8 mph /  4.5 km/h 5.8 mph /  9.3 km/h 93 % 0.01 in /  0.25 mm
13:14 65.5 °F /  18.6 °C 63.1 °F /  17.3 °C 29.88 in /  1011.7 hPa SSW 0.8 mph /  1.3 km/h 3.5 mph /  5.6 km/h 92 % 0.01 in /  0.25 mm
13:19 65.5 °F /  18.6 °C 62.8 °F /  17.1 °C 29.89 in /  1012.1 hPa SW 0.8 mph /  1.3 km/h 5.0 mph /  8 km/h 91 % 0.01 in /  0.25 mm
13:24 65.5 °F /  18.6 °C 62.8 °F /  17.1 °C 29.89 in /  1012.1 hPa WSW 2.7 mph /  4.3 km/h 5.0 mph /  8 km/h 91 % 0.00 in /  0 mm
13:29 65.6 °F /  18.7 °C 62.9 °F /  17.2 °C 29.88 in /  1011.7 hPa West 1.9 mph /  3.1 km/h 4.0 mph /  6.4 km/h 91 % 0.00 in /  0 mm
13:34 65.6 °F /  18.7 °C 62.6 °F /  17 °C 29.89 in /  1012.1 hPa SW 1.9 mph /  3.1 km/h 5.0 mph /  8 km/h 90 % 0.00 in /  0 mm
13:39 65.6 °F /  18.7 °C 62.6 °F /  17 °C 29.89 in /  1012.1 hPa SW 0.8 mph /  1.3 km/h 2.3 mph /  3.7 km/h 90 % 0.00 in /  0 mm
13:44 65.6 °F /  18.7 °C 62.6 °F /  17 °C 29.88 in /  1011.7 hPa WSW 1.6 mph /  2.6 km/h 4.0 mph /  6.4 km/h 90 % 0.00 in /  0 mm
13:49 65.6 °F /  18.7 °C 62.6 °F /  17 °C 29.88 in /  1011.7 hPa SW 0.4 mph /  0.6 km/h 3.5 mph /  5.6 km/h 90 % 0.00 in /  0 mm
13:54 65.6 °F /  18.7 °C 62.6 °F /  17 °C 29.88 in /  1011.7 hPa Calm     90 % 0.00 in /  0 mm
13:59 65.7 °F /  18.7 °C 62.7 °F /  17.1 °C 29.87 in /  1011.4 hPa WSW 0.2 mph /  0.3 km/h 3.5 mph /  5.6 km/h 90 % 0.00 in /  0 mm
14:04 65.6 °F /  18.7 °C 62.6 °F /  17 °C 29.87 in /  1011.4 hPa SW 1.3 mph /  2.1 km/h 2.3 mph /  3.7 km/h 90 % 0.00 in /  0 mm
14:09 65.6 °F /  18.7 °C 62.6 °F /  17 °C 29.88 in /  1011.7 hPa SW 1.3 mph /  2.1 km/h 5.0 mph /  8 km/h 90 % 0.00 in /  0 mm
14:14 65.5 °F /  18.6 °C 62.2 °F /  16.8 °C 29.89 in /  1012.1 hPa SW 1.0 mph /  1.6 km/h 3.5 mph /  5.6 km/h 89 % 0.00 in /  0 mm
14:20 65.4 °F /  18.6 °C 62.1 °F /  16.7 °C 29.89 in /  1012.1 hPa SW 1.7 mph /  2.7 km/h 3.0 mph /  4.8 km/h 89 % 0.00 in /  0 mm
14:25 65.4 °F /  18.6 °C 62.1 °F /  16.7 °C 29.89 in /  1012.1 hPa SW 2.4 mph /  3.9 km/h 3.5 mph /  5.6 km/h 89 % 0.00 in /  0 mm
14:29 65.3 °F /  18.5 °C 62.0 °F /  16.7 °C 29.87 in /  1011.4 hPa SSW 0.4 mph /  0.6 km/h 1.2 mph /  1.9 km/h 89 % 0.00 in /  0 mm
14:34 65.3 °F /  18.5 °C 62.0 °F /  16.7 °C 29.89 in /  1012.1 hPa SSW 1.0 mph /  1.6 km/h 3.5 mph /  5.6 km/h 89 % 0.00 in /  0 mm
14:39 65.3 °F /  18.5 °C 62.0 °F /  16.7 °C 29.89 in /  1012.1 hPa WSW 2.2 mph /  3.5 km/h 3.5 mph /  5.6 km/h 89 % 0.00 in /  0 mm
14:43 65.3 °F /  18.5 °C 62.3 °F /  16.8 °C 29.90 in /  1012.4 hPa WSW 1.3 mph /  2.1 km/h 3.5 mph /  5.6 km/h 90 % 0.00 in /  0 mm
14:48 65.2 °F /  18.4 °C 61.9 °F /  16.6 °C 29.90 in /  1012.4 hPa WSW 1.2 mph /  1.9 km/h 3.5 mph /  5.6 km/h 89 % 0.00 in /  0 mm
14:53 65.2 °F /  18.4 °C 62.2 °F /  16.8 °C 29.89 in /  1012.1 hPa WSW 1.6 mph /  2.6 km/h 4.0 mph /  6.4 km/h 90 % 0.00 in /  0 mm
14:55 65.2 °F /  18.4 °C 61.9 °F /  16.6 °C 29.90 in /  1012.4 hPa WSW 0.2 mph /  0.3 km/h 3.5 mph /  5.6 km/h 89 % 0.00 in /  0 mm
15:00 65.2 °F /  18.4 °C 61.9 °F /  16.6 °C 29.89 in /  1012.1 hPa SW 2.8 mph /  4.5 km/h 5.0 mph /  8 km/h 89 % 0.00 in /  0 mm
15:05 65.2 °F /  18.4 °C 61.9 °F /  16.6 °C 29.90 in /  1012.4 hPa SSW 1.5 mph /  2.4 km/h 3.5 mph /  5.6 km/h 89 % 0.00 in /  0 mm
15:10 65.1 °F /  18.4 °C 61.8 °F /  16.6 °C 29.90 in /  1012.4 hPa Calm   1.2 mph /  1.9 km/h 89 % 0.00 in /  0 mm
15:15 65.1 °F /  18.4 °C 61.8 °F /  16.6 °C 29.90 in /  1012.4 hPa Calm   2.3 mph /  3.7 km/h 89 % 0.00 in /  0 mm
15:20 65.1 °F /  18.4 °C 61.8 °F /  16.6 °C 29.91 in /  1012.8 hPa West 2.2 mph /  3.5 km/h 3.5 mph /  5.6 km/h 89 % 0.00 in /  0 mm
15:25 65.0 °F /  18.3 °C 61.7 °F /  16.5 °C 29.91 in /  1012.8 hPa SSW 1.3 mph /  2.1 km/h 6.0 mph /  9.7 km/h 89 % 0.00 in /  0 mm
15:31 65.0 °F /  18.3 °C 62.0 °F /  16.7 °C 29.90 in /  1012.4 hPa SW 1.0 mph /  1.6 km/h 5.0 mph /  8 km/h 90 % 0.00 in /  0 mm
15:36 64.9 °F /  18.3 °C 61.9 °F /  16.6 °C 29.90 in /  1012.4 hPa SW 2.0 mph /  3.2 km/h 5.0 mph /  8 km/h 90 % 0.00 in /  0 mm
15:41 64.9 °F /  18.3 °C 61.9 °F /  16.6 °C 29.90 in /  1012.4 hPa SW 1.8 mph /  2.9 km/h 3.5 mph /  5.6 km/h 90 % 0.00 in /  0 mm
15:46 64.8 °F /  18.2 °C 61.8 °F /  16.6 °C 29.88 in /  1011.7 hPa Calm   5.0 mph /  8 km/h 90 % 0.00 in /  0 mm
15:51 64.7 °F /  18.2 °C 61.7 °F /  16.5 °C 29.88 in /  1011.7 hPa Calm   3.0 mph /  4.8 km/h 90 % 0.00 in /  0 mm
15:56 64.7 °F /  18.2 °C 61.7 °F /  16.5 °C 29.89 in /  1012.1 hPa WSW 0.1 mph /  0.2 km/h   90 % 0.00 in /  0 mm
16:01 64.6 °F /  18.1 °C 61.6 °F /  16.4 °C 29.89 in /  1012.1 hPa WSW 1.1 mph /  1.8 km/h 3.5 mph /  5.6 km/h 90 % 0.00 in /  0 mm
16:06 64.5 °F /  18.1 °C 61.5 °F /  16.4 °C 29.88 in /  1011.7 hPa Calm   2.3 mph /  3.7 km/h 90 % 0.00 in /  0 mm
16:10 64.4 °F /  18 °C 61.7 °F /  16.5 °C 29.88 in /  1011.7 hPa Calm   2.3 mph /  3.7 km/h 91 % 0.00 in /  0 mm
16:15 64.3 °F /  17.9 °C 61.6 °F /  16.4 °C 29.88 in /  1011.7 hPa Calm     91 % 0.00 in /  0 mm
16:21 64.2 °F /  17.9 °C 61.6 °F /  16.4 °C 29.89 in /  1012.1 hPa Calm   1.0 mph /  1.6 km/h 91 % 0.00 in /  0 mm
16:26 64.1 °F /  17.8 °C 61.4 °F /  16.3 °C 29.89 in /  1012.1 hPa Calm   3.0 mph /  4.8 km/h 91 % 0.00 in /  0 mm
16:31 64.0 °F /  17.8 °C 61.3 °F /  16.3 °C 29.89 in /  1012.1 hPa WSW 1.0 mph /  1.6 km/h 4.0 mph /  6.4 km/h 91 % 0.00 in /  0 mm
16:36 63.9 °F /  17.7 °C 61.2 °F /  16.2 °C 29.89 in /  1012.1 hPa Calm   1.0 mph /  1.6 km/h 91 % 0.00 in /  0 mm
16:41 63.7 °F /  17.6 °C 61.0 °F /  16.1 °C 29.89 in /  1012.1 hPa SW 2.0 mph /  3.2 km/h 4.0 mph /  6.4 km/h 91 % 0.00 in /  0 mm
16:46 63.6 °F /  17.6 °C 60.9 °F /  16.1 °C 29.90 in /  1012.4 hPa SW 1.0 mph /  1.6 km/h 3.0 mph /  4.8 km/h 91 % 0.00 in /  0 mm
16:51 63.4 °F /  17.4 °C 60.7 °F /  15.9 °C 29.91 in /  1012.8 hPa SW 2.0 mph /  3.2 km/h 5.0 mph /  8 km/h 91 % 0.00 in /  0 mm
16:56 63.3 °F /  17.4 °C 60.6 °F /  15.9 °C 29.91 in /  1012.8 hPa SW 1.0 mph /  1.6 km/h 5.0 mph /  8 km/h 91 % 0.00 in /  0 mm
17:01 63.1 °F /  17.3 °C 60.7 °F /  15.9 °C 29.91 in /  1012.8 hPa SSW 0.2 mph /  0.3 km/h 1.2 mph /  1.9 km/h 92 % 0.00 in /  0 mm
17:06 63.0 °F /  17.2 °C 60.6 °F /  15.9 °C 29.91 in /  1012.8 hPa WSW 0.4 mph /  0.6 km/h 3.5 mph /  5.6 km/h 92 % 0.00 in /  0 mm
17:11 63.0 °F /  17.2 °C 60.6 °F /  15.9 °C 29.91 in /  1012.8 hPa WSW 0.4 mph /  0.6 km/h 1.2 mph /  1.9 km/h 92 % 0.00 in /  0 mm
17:16 62.9 °F /  17.2 °C 60.5 °F /  15.8 °C 29.92 in /  1013.1 hPa West 1.2 mph /  1.9 km/h 3.5 mph /  5.6 km/h 92 % 0.00 in /  0 mm
17:21 62.8 °F /  17.1 °C 60.4 °F /  15.8 °C 29.92 in /  1013.1 hPa West 0.6 mph /  1 km/h 3.5 mph /  5.6 km/h 92 % 0.00 in /  0 mm
17:26 62.7 °F /  17.1 °C 60.6 °F /  15.9 °C 29.93 in /  1013.4 hPa WSW 0.3 mph /  0.5 km/h 2.3 mph /  3.7 km/h 93 % 0.00 in /  0 mm
17:31 62.6 °F /  17 °C 60.5 °F /  15.8 °C 29.92 in /  1013.1 hPa West 0.4 mph /  0.6 km/h 2.3 mph /  3.7 km/h 93 % 0.00 in /  0 mm
17:36 62.6 °F /  17 °C 60.5 °F /  15.8 °C 29.93 in /  1013.4 hPa WSW 0.2 mph /  0.3 km/h 1.2 mph /  1.9 km/h 93 % 0.00 in /  0 mm
17:41 62.5 °F /  16.9 °C 60.4 °F /  15.8 °C 29.92 in /  1013.1 hPa WSW 1.0 mph /  1.6 km/h 3.5 mph /  5.6 km/h 93 % 0.00 in /  0 mm
17:46 62.5 °F /  16.9 °C 60.4 °F /  15.8 °C 29.93 in /  1013.4 hPa WSW 2.3 mph /  3.7 km/h 4.6 mph /  7.4 km/h 93 % 0.00 in /  0 mm
17:51 62.5 °F /  16.9 °C 60.7 °F /  15.9 °C 29.93 in /  1013.4 hPa WSW 5.6 mph /  9 km/h 8.1 mph /  13 km/h 94 % 0.00 in /  0 mm
17:56 62.5 °F /  16.9 °C 60.7 °F /  15.9 °C 29.94 in /  1013.8 hPa West 4.2 mph /  6.8 km/h 11.5 mph /  18.5 km/h 94 % 0.00 in /  0 mm
18:01 62.3 °F /  16.8 °C 60.2 °F /  15.7 °C 29.95 in /  1014.1 hPa West 2.5 mph /  4 km/h 10.4 mph /  16.7 km/h 93 % 0.00 in /  0 mm
18:06 62.3 °F /  16.8 °C 59.9 °F /  15.5 °C 29.95 in /  1014.1 hPa NW 7.6 mph /  12.2 km/h 12.7 mph /  20.4 km/h 92 % 0.00 in /  0 mm
18:12 62.3 °F /  16.8 °C 59.6 °F /  15.3 °C 29.95 in /  1014.1 hPa NW 6.4 mph /  10.3 km/h 12.7 mph /  20.4 km/h 91 % 0.00 in /  0 mm
18:17 62.2 °F /  16.8 °C 59.5 °F /  15.3 °C 29.96 in /  1014.4 hPa WNW 6.4 mph /  10.3 km/h 13.8 mph /  22.2 km/h 91 % 0.00 in /  0 mm
18:22 62.1 °F /  16.7 °C 59.1 °F /  15.1 °C 29.96 in /  1014.4 hPa NNW 5.0 mph /  8 km/h 11.5 mph /  18.5 km/h 90 % 0.00 in /  0 mm
18:27 62.0 °F /  16.7 °C 58.7 °F /  14.8 °C 29.97 in /  1014.8 hPa WNW 2.5 mph /  4 km/h 9.2 mph /  14.8 km/h 89 % 0.00 in /  0 mm
18:32 61.9 °F /  16.6 °C 58.6 °F /  14.8 °C 29.97 in /  1014.8 hPa NNE 5.5 mph /  8.9 km/h 11.5 mph /  18.5 km/h 89 % 0.00 in /  0 mm
18:37 61.8 °F /  16.6 °C 58.5 °F /  14.7 °C 29.98 in /  1015.1 hPa NNE 3.4 mph /  5.5 km/h 6.0 mph /  9.7 km/h 89 % 0.00 in /  0 mm
18:42 61.7 °F /  16.5 °C 58.4 °F /  14.7 °C 29.98 in /  1015.1 hPa NNW 4.5 mph /  7.2 km/h 6.9 mph /  11.1 km/h 89 % 0.00 in /  0 mm
18:45 61.6 °F /  16.4 °C 58.3 °F /  14.6 °C 29.98 in /  1015.1 hPa North 3.9 mph /  6.3 km/h 8.1 mph /  13 km/h 89 % 0.00 in /  0 mm
18:50 61.3 °F /  16.3 °C 57.4 °F /  14.1 °C 29.99 in /  1015.5 hPa NNE 7.6 mph /  12.2 km/h 11.5 mph /  18.5 km/h 87 % 0.00 in /  0 mm
18:55 61.0 °F /  16.1 °C 57.1 °F /  13.9 °C 29.99 in /  1015.5 hPa North 8.1 mph /  13 km/h 10.0 mph /  16.1 km/h 87 % 0.00 in /  0 mm
19:00 60.7 °F /  15.9 °C 56.8 °F /  13.8 °C 30.00 in /  1015.8 hPa North 6.8 mph /  10.9 km/h 11.5 mph /  18.5 km/h 87 % 0.00 in /  0 mm
19:05 60.2 °F /  15.7 °C 56.3 °F /  13.5 °C 30.00 in /  1015.8 hPa NNE 7.3 mph /  11.7 km/h 14.0 mph /  22.5 km/h 87 % 0.00 in /  0 mm
19:10 59.8 °F /  15.4 °C 55.9 °F /  13.3 °C 30.00 in /  1015.8 hPa NE 7.6 mph /  12.2 km/h 11.0 mph /  17.7 km/h 87 % 0.00 in /  0 mm
19:16 59.5 °F /  15.3 °C 55.6 °F /  13.1 °C 30.00 in /  1015.8 hPa NNE 6.0 mph /  9.7 km/h 13.0 mph /  20.9 km/h 87 % 0.00 in /  0 mm
19:21 59.2 °F /  15.1 °C 55.4 °F /  13 °C 30.01 in /  1016.1 hPa NNE 6.0 mph /  9.7 km/h 12.0 mph /  19.3 km/h 87 % 0.00 in /  0 mm
19:26 59.1 °F /  15.1 °C 55.5 °F /  13.1 °C 30.01 in /  1016.1 hPa NNE 5.0 mph /  8 km/h 9.0 mph /  14.5 km/h 88 % 0.00 in /  0 mm
19:31 58.9 °F /  14.9 °C 55.3 °F /  12.9 °C 30.02 in /  1016.5 hPa North 6.0 mph /  9.7 km/h 10.0 mph /  16.1 km/h 88 % 0.00 in /  0 mm
19:36 58.7 °F /  14.8 °C 54.8 °F /  12.7 °C 30.02 in /  1016.5 hPa NNW 5.0 mph /  8 km/h 10.0 mph /  16.1 km/h 87 % 0.00 in /  0 mm
19:41 58.5 °F /  14.7 °C 54.3 °F /  12.4 °C 30.02 in /  1016.5 hPa NNW 2.0 mph /  3.2 km/h 9.0 mph /  14.5 km/h 86 % 0.00 in /  0 mm
19:46 58.4 °F /  14.7 °C 54.2 °F /  12.3 °C 30.02 in /  1016.5 hPa North 2.0 mph /  3.2 km/h 8.0 mph /  12.9 km/h 86 % 0.00 in /  0 mm
19:51 58.2 °F /  14.6 °C 54.0 °F /  12.2 °C 30.02 in /  1016.5 hPa NNW 5.0 mph /  8 km/h 9.0 mph /  14.5 km/h 86 % 0.00 in /  0 mm
19:56 57.8 °F /  14.3 °C 53.0 °F /  11.7 °C 30.02 in /  1016.5 hPa North 8.0 mph /  12.9 km/h 15.0 mph /  24.1 km/h 84 % 0.00 in /  0 mm
20:01 57.5 °F /  14.2 °C 52.4 °F /  11.3 °C 30.02 in /  1016.5 hPa NE 3.7 mph /  6 km/h 11.5 mph /  18.5 km/h 83 % 0.00 in /  0 mm
20:06 57.3 °F /  14.1 °C 52.5 °F /  11.4 °C 30.03 in /  1016.8 hPa NNE 6.9 mph /  11.1 km/h 10.0 mph /  16.1 km/h 84 % 0.00 in /  0 mm
20:11 57.0 °F /  13.9 °C 51.9 °F /  11.1 °C 30.04 in /  1017.2 hPa North 8.8 mph /  14.2 km/h 15.0 mph /  24.1 km/h 83 % 0.00 in /  0 mm
20:16 56.6 °F /  13.7 °C 51.2 °F /  10.7 °C 30.04 in /  1017.2 hPa NNE 7.6 mph /  12.2 km/h 11.5 mph /  18.5 km/h 82 % 0.00 in /  0 mm
20:21 56.3 °F /  13.5 °C 50.9 °F /  10.5 °C 30.05 in /  1017.5 hPa NNE 6.5 mph /  10.5 km/h 12.0 mph /  19.3 km/h 82 % 0.00 in /  0 mm
20:26 56.2 °F /  13.4 °C 51.1 °F /  10.6 °C 30.05 in /  1017.5 hPa North 5.0 mph /  8 km/h 7.0 mph /  11.3 km/h 83 % 0.00 in /  0 mm
20:31 56.0 °F /  13.3 °C 50.9 °F /  10.5 °C 30.06 in /  1017.8 hPa NNE 6.3 mph /  10.1 km/h 12.7 mph /  20.4 km/h 83 % 0.00 in /  0 mm
20:36 55.8 °F /  13.2 °C 50.4 °F /  10.2 °C 30.06 in /  1017.8 hPa North 7.0 mph /  11.3 km/h 11.5 mph /  18.5 km/h 82 % 0.00 in /  0 mm
20:41 55.6 °F /  13.1 °C 49.5 °F /  9.7 °C 30.06 in /  1017.8 hPa North 3.3 mph /  5.3 km/h 5.8 mph /  9.3 km/h 80 % 0.00 in /  0 mm
20:46 55.4 °F /  13 °C 49.7 °F /  9.8 °C 30.07 in /  1018.2 hPa NNE 6.7 mph /  10.8 km/h 13.8 mph /  22.2 km/h 81 % 0.00 in /  0 mm
20:47 55.4 °F /  13 °C 49.7 °F /  9.8 °C 30.07 in /  1018.2 hPa NNW 6.8 mph /  10.9 km/h 13.8 mph /  22.2 km/h 81 % 0.00 in /  0 mm
20:52 55.2 °F /  12.9 °C 49.1 °F /  9.5 °C 30.07 in /  1018.2 hPa NNE 7.7 mph /  12.4 km/h 11.5 mph /  18.5 km/h 80 % 0.00 in /  0 mm
20:57 54.9 °F /  12.7 °C 48.2 °F /  9 °C 30.07 in /  1018.2 hPa North 6.7 mph /  10.8 km/h 11.5 mph /  18.5 km/h 78 % 0.00 in /  0 mm
21:02 54.6 °F /  12.6 °C 48.2 °F /  9 °C 30.08 in /  1018.5 hPa North 11.6 mph /  18.7 km/h 18.4 mph /  29.6 km/h 79 % 0.00 in /  0 mm
21:07 54.3 °F /  12.4 °C 47.6 °F /  8.7 °C 30.08 in /  1018.5 hPa NNE 8.6 mph /  13.8 km/h 15.0 mph /  24.1 km/h 78 % 0.00 in /  0 mm
21:12 54.1 °F /  12.3 °C 47.4 °F /  8.6 °C 30.08 in /  1018.5 hPa NNE 8.8 mph /  14.2 km/h 16.1 mph /  25.9 km/h 78 % 0.00 in /  0 mm
21:17 53.9 °F /  12.2 °C 47.5 °F /  8.6 °C 30.08 in /  1018.5 hPa NE 6.1 mph /  9.8 km/h 10.4 mph /  16.7 km/h 79 % 0.00 in /  0 mm
21:22 53.6 °F /  12 °C 47.2 °F /  8.4 °C 30.08 in /  1018.5 hPa North 6.3 mph /  10.1 km/h 10.4 mph /  16.7 km/h 79 % 0.00 in /  0 mm
21:27 53.4 °F /  11.9 °C 47.4 °F /  8.6 °C 30.09 in /  1018.8 hPa North 4.7 mph /  7.6 km/h 6.9 mph /  11.1 km/h 80 % 0.00 in /  0 mm
21:32 53.3 °F /  11.8 °C 47.6 °F /  8.7 °C 30.09 in /  1018.8 hPa NNW 5.2 mph /  8.4 km/h 7.0 mph /  11.3 km/h 81 % 0.00 in /  0 mm
21:37 53.1 °F /  11.7 °C 47.4 °F /  8.6 °C 30.09 in /  1018.8 hPa NNW 2.4 mph /  3.9 km/h 4.6 mph /  7.4 km/h 81 % 0.00 in /  0 mm
21:42 53.1 °F /  11.7 °C 47.7 °F /  8.7 °C 30.09 in /  1018.8 hPa WNW 4.2 mph /  6.8 km/h 8.1 mph /  13 km/h 82 % 0.00 in /  0 mm
21:47 52.9 °F /  11.6 °C 47.6 °F /  8.7 °C 30.09 in /  1018.8 hPa NNW 6.1 mph /  9.8 km/h 9.2 mph /  14.8 km/h 82 % 0.00 in /  0 mm
21:52 52.8 °F /  11.6 °C 47.8 °F /  8.8 °C 30.09 in /  1018.8 hPa NW 6.8 mph /  10.9 km/h 11.5 mph /  18.5 km/h 83 % 0.00 in /  0 mm
21:57 52.5 °F /  11.4 °C 47.2 °F /  8.4 °C 30.09 in /  1018.8 hPa NNW 4.2 mph /  6.8 km/h 6.9 mph /  11.1 km/h 82 % 0.00 in /  0 mm
22:02 52.4 °F /  11.3 °C 47.1 °F /  8.4 °C 30.09 in /  1018.8 hPa NNW 0.5 mph /  0.8 km/h 1.2 mph /  1.9 km/h 82 % 0.00 in /  0 mm
22:07 52.2 °F /  11.2 °C 47.2 °F /  8.4 °C 30.09 in /  1018.8 hPa NNW 2.3 mph /  3.7 km/h 5.8 mph /  9.3 km/h 83 % 0.00 in /  0 mm
22:13 52.1 °F /  11.2 °C 47.1 °F /  8.4 °C 30.09 in /  1018.8 hPa NNE 4.5 mph /  7.2 km/h 9.2 mph /  14.8 km/h 83 % 0.00 in /  0 mm
22:18 51.9 °F /  11.1 °C 46.9 °F /  8.3 °C 30.09 in /  1018.8 hPa North 4.6 mph /  7.4 km/h 11.0 mph /  17.7 km/h 83 % 0.00 in /  0 mm
22:23 51.6 °F /  10.9 °C 46.3 °F /  7.9 °C 29.85 in /  1010.7 hPa NNE 5.3 mph /  8.5 km/h 13.0 mph /  20.9 km/h 82 % 0.00 in /  0 mm
22:28 51.5 °F /  10.8 °C 46.2 °F /  7.9 °C 30.09 in /  1018.8 hPa NNE 6.5 mph /  10.5 km/h 9.2 mph /  14.8 km/h 82 % 0.00 in /  0 mm
22:33 51.4 °F /  10.8 °C 45.8 °F /  7.7 °C 30.09 in /  1018.8 hPa NNE 7.2 mph /  11.6 km/h 12.0 mph /  19.3 km/h 81 % 0.00 in /  0 mm
22:38 51.3 °F /  10.7 °C 45.3 °F /  7.4 °C 30.09 in /  1018.8 hPa North 6.1 mph /  9.8 km/h 12.7 mph /  20.4 km/h 80 % 0.00 in /  0 mm
22:43 51.2 °F /  10.7 °C 45.2 °F /  7.3 °C 30.10 in /  1019.2 hPa NNE 4.5 mph /  7.2 km/h 12.7 mph /  20.4 km/h 80 % 0.00 in /  0 mm
22:48 51.0 °F /  10.6 °C 45.0 °F /  7.2 °C 30.09 in /  1018.8 hPa NE 4.1 mph /  6.6 km/h 8.1 mph /  13 km/h 80 % 0.00 in /  0 mm
22:53 50.9 °F /  10.5 °C 44.9 °F /  7.2 °C 30.09 in /  1018.8 hPa NNE 5.6 mph /  9 km/h 10.4 mph /  16.7 km/h 80 % 0.00 in /  0 mm
22:58 50.6 °F /  10.3 °C 44.7 °F /  7.1 °C 30.09 in /  1018.8 hPa North 5.5 mph /  8.9 km/h 9.2 mph /  14.8 km/h 80 % 0.00 in /  0 mm
23:04 50.5 °F /  10.3 °C 44.6 °F /  7 °C 30.10 in /  1019.2 hPa North 6.5 mph /  10.5 km/h 10.4 mph /  16.7 km/h 80 % 0.00 in /  0 mm
23:09 50.4 °F /  10.2 °C 44.8 °F /  7.1 °C 30.10 in /  1019.2 hPa North 5.2 mph /  8.4 km/h 8.0 mph /  12.9 km/h 81 % 0.00 in /  0 mm
23:14 50.3 °F /  10.2 °C 45.0 °F /  7.2 °C 30.11 in /  1019.5 hPa North 6.4 mph /  10.3 km/h 12.0 mph /  19.3 km/h 82 % 0.00 in /  0 mm
23:19 50.1 °F /  10.1 °C 44.2 °F /  6.8 °C 30.11 in /  1019.5 hPa NNE 6.9 mph /  11.1 km/h 11.5 mph /  18.5 km/h 80 % 0.00 in /  0 mm
23:24 50.0 °F /  10 °C 44.1 °F /  6.7 °C 30.11 in /  1019.5 hPa North 5.3 mph /  8.5 km/h 11.5 mph /  18.5 km/h 80 % 0.00 in /  0 mm
23:29 49.9 °F /  9.9 °C 43.6 °F /  6.4 °C 30.11 in /  1019.5 hPa North 5.1 mph /  8.2 km/h 10.4 mph /  16.7 km/h 79 % 0.00 in /  0 mm
23:34 49.7 °F /  9.8 °C 43.5 °F /  6.4 °C 30.11 in /  1019.5 hPa NE 6.7 mph /  10.8 km/h 11.5 mph /  18.5 km/h 79 % 0.00 in /  0 mm
23:39 49.6 °F /  9.8 °C 43.0 °F /  6.1 °C 30.11 in /  1019.5 hPa North 4.8 mph /  7.7 km/h 8.1 mph /  13 km/h 78 % 0.00 in /  0 mm
23:44 49.5 °F /  9.7 °C 42.9 °F /  6.1 °C 30.11 in /  1019.5 hPa NNE 6.3 mph /  10.1 km/h 11.0 mph /  17.7 km/h 78 % 0.00 in /  0 mm
23:49 49.4 °F /  9.7 °C 42.8 °F /  6 °C 30.11 in /  1019.5 hPa NNE 6.6 mph /  10.6 km/h 15.0 mph /  24.1 km/h 78 % 0.00 in /  0 mm
23:54 49.3 °F /  9.6 °C 42.7 °F /  5.9 °C 30.12 in /  1019.9 hPa North 4.5 mph /  7.2 km/h 9.0 mph /  14.5 km/h 78 % 0.00 in /  0 mm
23:59 49.2 °F /  9.6 °C 42.6 °F /  5.9 °C 30.11 in /  1019.5 hPa North 5.5 mph /  8.9 km/h 10.0 mph /  16.1 km/h 78 % 0.00 in /  0 mm
Crab Meadow Weather
Compliments of Weather Underground - 3 mb

Script developed by  Jim McMurry - jmcmurry@mwt.net Adapted for the template by  Wim van der Kuil - Leuven-Template.eu

Weather Terms: Sleet - Sleet or ice pellets are solid grains of ice formed from the freezing of rain or the refreezing of melted snow, which bounce off the ground and other objects.